createdAt,value
2022-11-17T00:02:10.619Z,23
2022-11-17T00:07:49.677Z,23.1
2022-11-17T00:13:33.855Z,23.1
2022-11-17T00:18:41.094Z,23.1
2022-11-17T00:24:17.968Z,23.1
2022-11-17T00:29:39.942Z,23
2022-11-17T00:35:03.138Z,23.1
2022-11-17T00:40:10.178Z,23.1
2022-11-17T00:45:47.809Z,23.1
2022-11-17T00:50:39.772Z,23
2022-11-17T00:55:47.507Z,23
2022-11-17T01:01:09.752Z,23.1
2022-11-17T01:06:17.256Z,23.1
2022-11-17T01:11:40.304Z,23.1
2022-11-17T01:17:02.317Z,23
2022-11-17T01:22:40.454Z,23
2022-11-17T01:27:32.097Z,23.1
2022-11-17T01:32:39.215Z,23.1
2022-11-17T01:37:30.431Z,23.1
2022-11-17T01:42:52.445Z,23
2022-11-17T01:48:00.140Z,22.9
2022-11-17T01:53:21.737Z,23.1
2022-11-17T01:58:43.987Z,22.9
2022-11-17T02:04:07.701Z,22.9
2022-11-17T02:09:44.804Z,23
2022-11-17T02:15:22.952Z,23
2022-11-17T02:20:55.606Z,23
2022-11-17T02:25:48.894Z,22.9
2022-11-17T02:31:11.952Z,23
2022-11-17T02:36:34.967Z,23
2022-11-17T02:41:41.118Z,23
2022-11-17T02:47:04.160Z,23
2022-11-17T02:52:30.369Z,23
2022-11-17T02:57:37.745Z,23
2022-11-17T03:02:59.839Z,23
2022-11-17T03:08:23.866Z,23
2022-11-17T03:14:02.058Z,23
2022-11-17T03:19:39.845Z,23
2022-11-17T03:25:18.170Z,23
2022-11-17T03:30:58.964Z,22.9
2022-11-17T03:36:42.469Z,23
2022-11-17T03:42:20.885Z,22.9
2022-11-17T03:47:27.593Z,22.9
2022-11-17T03:52:34.682Z,22.9
2022-11-17T03:58:13.580Z,22.9
2022-11-17T04:03:34.959Z,23
2022-11-17T04:08:57.768Z,22.9
2022-11-17T04:14:38.286Z,22.9
2022-11-17T04:20:18.698Z,23
2022-11-17T04:25:57.185Z,22.9
2022-11-17T04:31:19.497Z,22.9
2022-11-17T04:36:57.094Z,22.9
2022-11-17T04:42:19.463Z,23
2022-11-17T04:47:58.075Z,22.9
2022-11-17T04:53:40.555Z,22.9
2022-11-17T04:59:05.828Z,22.9
2022-11-17T05:04:29.410Z,22.9
2022-11-17T05:10:06.772Z,22.9
2022-11-17T05:15:44.452Z,22.9
2022-11-17T05:20:54.625Z,22.9
2022-11-17T05:26:31.945Z,22.9
2022-11-17T05:32:09.839Z,22.9
2022-11-17T05:37:52.793Z,22.9
2022-11-17T05:43:35.563Z,22.9
2022-11-17T05:48:58.517Z,22.9
2022-11-17T05:54:25.348Z,22.9
2022-11-17T05:59:49.880Z,22.9
2022-11-17T06:04:57.112Z,22.9
2022-11-17T06:10:26.657Z,22.9
2022-11-17T06:16:05.008Z,22.9
2022-11-17T06:21:25.992Z,22.9
2022-11-17T06:27:20.956Z,22.9
2022-11-17T06:32:59.986Z,22.9
2022-11-17T06:38:22.209Z,22.9
2022-11-17T06:44:04.390Z,22.9
2022-11-17T06:49:42.549Z,22.9
2022-11-17T06:55:27.158Z,22.9
2022-11-17T07:00:50.802Z,22.8
2022-11-17T07:06:14.249Z,22.9
2022-11-17T07:11:57.845Z,22.9
2022-11-17T07:17:20.677Z,22.9
2022-11-17T07:22:59.853Z,22.8
2022-11-17T07:28:28.387Z,22.9
2022-11-17T07:34:07.042Z,22.9
2022-11-17T07:39:45.769Z,22.8
2022-11-17T07:45:25.131Z,22.8
2022-11-17T07:51:05.691Z,22.8
2022-11-17T07:56:29.092Z,22.8
2022-11-17T08:02:14.073Z,22.8
2022-11-17T08:07:43.615Z,22.8
2022-11-17T08:12:52.145Z,22.8
2022-11-17T08:18:16.343Z,22.8
2022-11-17T08:23:41.926Z,22.8
2022-11-17T08:29:05.170Z,22.8
2022-11-17T08:34:27.883Z,22.8
2022-11-17T08:39:53.896Z,22.8
2022-11-17T08:45:36.515Z,22.8
2022-11-17T08:51:15.935Z,22.8
2022-11-17T08:56:40.084Z,22.8
2022-11-17T09:02:19.213Z,22.8
2022-11-17T09:08:10.627Z,22.8
2022-11-17T09:13:56.922Z,22.8
2022-11-17T09:19:35.733Z,22.8
2022-11-17T09:25:02.206Z,22.8
2022-11-17T09:30:26.425Z,22.8
2022-11-17T09:35:51.559Z,22.8
2022-11-17T09:41:16.427Z,22.8
2022-11-17T09:47:00.611Z,22.8
2022-11-17T09:52:55.544Z,22.9
2022-11-17T09:58:39.864Z,22.8
2022-11-17T10:04:23.991Z,22.8
2022-11-17T10:10:04.192Z,22.8
2022-11-17T10:15:42.118Z,22.8
2022-11-17T10:21:20.377Z,22.8
2022-11-17T10:26:59.150Z,22.8
2022-11-17T10:32:37.163Z,22.8
2022-11-17T10:38:21.862Z,22.8
2022-11-17T10:44:07.916Z,22.8
2022-11-17T10:49:55.286Z,22.7
2022-11-17T10:55:34.498Z,22.6
2022-11-17T11:01:12.694Z,22.6
2022-11-17T11:06:55.584Z,22.7
2022-11-17T11:12:34.037Z,22.7
2022-11-17T11:18:15.200Z,22.7
2022-11-17T11:23:37.552Z,22.7
2022-11-17T11:29:20.835Z,22.7
2022-11-17T11:34:58.791Z,22.7
2022-11-17T11:40:39.433Z,22.8
2022-11-17T11:46:22.813Z,22.8
2022-11-17T11:52:06.615Z,22.8
2022-11-17T11:57:32.322Z,22.7
2022-11-17T12:03:13.791Z,22.7
2022-11-17T12:08:52.541Z,22.8
2022-11-17T12:14:36.337Z,22.7
2022-11-17T12:20:14.728Z,22.7
2022-11-17T12:25:54.272Z,22.8
2022-11-17T12:31:32.578Z,22.7
2022-11-17T12:42:33.760Z,22.8
2022-11-17T12:48:53.292Z,22.8
2022-11-17T12:54:32.644Z,22.8
2022-11-17T13:00:12.177Z,22.8
2022-11-17T13:06:01.582Z,22.7
2022-11-17T13:12:00.700Z,22.7
2022-11-17T13:17:43.847Z,22.7
2022-11-17T13:23:06.606Z,22.8
2022-11-17T13:28:35.496Z,22.7
2022-11-17T13:34:18.257Z,22.7
2022-11-17T13:40:02.373Z,22.7
2022-11-17T13:45:40.999Z,22.8
2022-11-17T13:51:18.893Z,22.7
2022-11-17T13:57:00.956Z,22.7
2022-11-17T14:02:41.345Z,22.7
2022-11-17T14:08:20.577Z,22.7
2022-11-17T14:13:58.301Z,22.7
2022-11-17T14:19:37.181Z,22.7
2022-11-17T14:25:23.743Z,22.7
2022-11-17T14:31:01.750Z,22.7
2022-11-17T14:36:49.916Z,22.7
2022-11-17T14:42:16.528Z,22.7
2022-11-17T14:47:58.259Z,22.7
2022-11-17T14:53:25.554Z,22.7
2022-11-17T14:58:33.152Z,22.6
2022-11-17T15:04:35.077Z,22.6
2022-11-17T15:10:31.181Z,22.6
2022-11-17T15:16:10.585Z,22.6
2022-11-17T15:21:33.061Z,22.7
2022-11-17T15:27:16.670Z,22.6
2022-11-17T15:32:40.232Z,22.6
2022-11-17T15:38:18.501Z,22.6
2022-11-17T15:43:49.620Z,22.6
2022-11-17T15:49:29.801Z,22.6
2022-11-17T15:55:40.084Z,22.6
2022-11-17T16:01:18.731Z,22.6
2022-11-17T16:06:41.263Z,22.6
2022-11-17T16:12:08.515Z,22.6
2022-11-17T16:17:46.203Z,22.6
2022-11-17T16:23:24.750Z,22.6
2022-11-17T16:28:46.996Z,22.6
2022-11-17T16:34:14.199Z,22.6
2022-11-17T16:40:24.508Z,22.6
2022-11-17T16:45:47.377Z,22.6
2022-11-17T16:51:24.723Z,22.6
2022-11-17T16:57:06.813Z,22.6
2022-11-17T17:02:29.192Z,22.6
2022-11-17T17:08:08.202Z,22.6
2022-11-17T17:13:31.209Z,22.6
2022-11-17T17:24:16.389Z,22.6
2022-11-17T17:29:22.980Z,22.6
2022-11-17T17:35:03.026Z,22.6
2022-11-17T17:40:25.482Z,22.6
2022-11-17T17:46:03.322Z,22.7
2022-11-17T17:51:41.697Z,22.6
2022-11-17T17:56:48.337Z,22.7
2022-11-17T18:02:25.566Z,22.6
2022-11-17T18:07:50.722Z,22.6
2022-11-17T18:13:32.447Z,22.7
2022-11-17T18:19:10.156Z,22.7
2022-11-17T18:24:58.133Z,22.6
2022-11-17T18:30:39.400Z,22.6
2022-11-17T18:36:17.627Z,22.7
2022-11-17T18:41:55.385Z,22.6
2022-11-17T18:47:39.631Z,22.6
2022-11-17T18:53:42.040Z,22.7
2022-11-17T18:59:20.011Z,22.7
2022-11-17T19:04:42.697Z,22.7
2022-11-17T19:10:21.037Z,22.7
2022-11-17T19:15:59.056Z,22.7
2022-11-17T19:21:37.823Z,22.8
2022-11-17T19:27:01.757Z,22.8
2022-11-17T19:38:01.163Z,22.8
2022-11-17T19:43:44.745Z,22.8
2022-11-17T19:49:22.547Z,22.8
2022-11-17T19:54:59.758Z,22.8
2022-11-17T20:00:26.982Z,22.8
2022-11-17T20:05:49.707Z,22.8
2022-11-17T20:10:57.051Z,22.9
2022-11-17T20:16:33.376Z,22.8
2022-11-17T20:22:11.925Z,22.8
2022-11-17T20:27:39.968Z,22.9
2022-11-17T20:33:23.651Z,22.9
2022-11-17T20:39:03.261Z,22.9
2022-11-17T20:44:41.183Z,22.9
2022-11-17T20:50:03.415Z,23
2022-11-17T20:55:26.478Z,22.9
2022-11-17T21:01:05.900Z,23
2022-11-17T21:06:35.064Z,23
2022-11-17T21:12:13.849Z,23
2022-11-17T21:17:36.429Z,23.1
2022-11-17T21:23:20.074Z,23.1
2022-11-17T21:29:01.860Z,23.1
2022-11-17T21:34:27.845Z,23.1
2022-11-17T21:39:55.795Z,23.1
2022-11-17T21:45:18.377Z,23.1
2022-11-17T21:50:55.858Z,23.2
2022-11-17T21:56:33.715Z,23.2
2022-11-17T22:01:40.876Z,23.2
2022-11-17T22:07:19.890Z,23.2
2022-11-17T22:12:43.121Z,23.3
2022-11-17T22:18:20.227Z,23.3
2022-11-17T22:23:58.266Z,23.3
2022-11-17T22:29:50.693Z,23.3
2022-11-17T22:35:31.719Z,23.3
2022-11-17T22:40:54.559Z,23.4
2022-11-17T22:46:39.132Z,23.4
2022-11-17T22:52:16.991Z,23.4
2022-11-17T22:57:54.061Z,23.4
2022-11-17T23:03:21.930Z,23.4
2022-11-17T23:08:47.533Z,23.4
2022-11-17T23:14:59.720Z,23.4
2022-11-17T23:20:22.548Z,23.4
2022-11-17T23:25:45.125Z,23.4
2022-11-17T23:31:23.061Z,23.5
2022-11-17T23:37:03.639Z,23.5
2022-11-17T23:42:43.160Z,23.5
2022-11-17T23:48:21.289Z,23.5
2022-11-17T23:53:58.822Z,23.6
2022-11-17T23:59:36.694Z,23.6
